sensor_id;sensor_type;location;lat;lon;timestamp;temperature;humidity
2439;DHT22;14509;47.992;7.848;2023-06-22T02:54:32;24.00;60.60
2439;DHT22;14509;47.992;7.848;2023-06-22T02:56:34;23.90;60.80
2439;DHT22;14509;47.992;7.848;2023-06-22T02:58:37;23.90;60.60
2439;DHT22;14509;47.992;7.848;2023-06-22T03:00:43;23.90;60.60
2439;DHT22;14509;47.992;7.848;2023-06-22T03:02:45;24.10;60.70
2439;DHT22;14509;47.992;7.848;2023-06-22T03:04:47;23.90;60.40
2439;DHT22;14509;47.992;7.848;2023-06-22T03:06:50;24.10;60.30
2439;DHT22;14509;47.992;7.848;2023-06-22T03:08:52;23.90;60.10
2439;DHT22;14509;47.992;7.848;2023-06-22T03:10:56;24.50;60.60
2439;DHT22;14509;47.992;7.848;2023-06-22T03:12:58;24.00;59.90
2439;DHT22;14509;47.992;7.848;2023-06-22T03:15:00;24.00;59.70
2439;DHT22;14509;47.992;7.848;2023-06-22T03:17:02;24.00;59.60
2439;DHT22;14509;47.992;7.848;2023-06-22T03:19:04;24.10;59.60
2439;DHT22;14509;47.992;7.848;2023-06-22T03:21:06;24.00;59.40
2439;DHT22;14509;47.992;7.848;2023-06-22T03:23:08;24.10;59.40
2439;DHT22;14509;47.992;7.848;2023-06-22T03:25:10;24.00;59.10
2439;DHT22;14509;47.992;7.848;2023-06-22T03:27:17;24.10;59.10
2439;DHT22;14509;47.992;7.848;2023-06-22T03:29:19;24.20;59.10
2439;DHT22;14509;47.992;7.848;2023-06-22T03:31:21;25.00;59.70
2439;DHT22;14509;47.992;7.848;2023-06-22T03:33:24;24.20;59.10
2439;DHT22;14509;47.992;7.848;2023-06-22T03:35:26;24.20;59.10
2439;DHT22;14509;47.992;7.848;2023-06-22T03:37:28;24.10;59.10
2439;DHT22;14509;47.992;7.848;2023-06-22T03:39:31;24.20;59.20
2439;DHT22;14509;47.992;7.848;2023-06-22T03:41:33;24.00;59.10
2439;DHT22;14509;47.992;7.848;2023-06-22T03:43:37;24.00;59.10
2439;DHT22;14509;47.992;7.848;2023-06-22T03:45:39;24.00;59.40
2439;DHT22;14509;47.992;7.848;2023-06-22T03:47:41;24.00;59.40
2439;DHT22;14509;47.992;7.848;2023-06-22T03:49:43;24.00;59.50
2439;DHT22;14509;47.992;7.848;2023-06-22T03:51:45;24.00;59.60
2439;DHT22;14509;47.992;7.848;2023-06-22T03:53:47;24.00;60.20
2439;DHT22;14509;47.992;7.848;2023-06-22T03:55:50;24.40;59.90
2439;DHT22;14509;47.992;7.848;2023-06-22T03:57:52;24.00;59.60
2439;DHT22;14509;47.992;7.848;2023-06-22T03:59:58;24.00;59.60
2439;DHT22;14509;47.992;7.848;2023-06-22T04:02:00;23.90;59.60
2439;DHT22;14509;47.992;7.848;2023-06-22T04:04:02;24.00;59.50
2439;DHT22;14509;47.992;7.848;2023-06-22T04:06:05;24.00;59.40
2439;DHT22;14509;47.992;7.848;2023-06-22T04:08:07;24.60;59.90
2439;DHT22;14509;47.992;7.848;2023-06-22T04:10:09;24.10;59.40
2439;DHT22;14509;47.992;7.848;2023-06-22T04:12:11;24.10;59.50
2439;DHT22;14509;47.992;7.848;2023-06-22T04:14:13;24.10;59.40
2439;DHT22;14509;47.992;7.848;2023-06-22T04:16:17;24.10;59.30
2439;DHT22;14509;47.992;7.848;2023-06-22T04:18:18;24.20;59.20
2439;DHT22;14509;47.992;7.848;2023-06-22T04:20:21;24.20;59.20
2439;DHT22;14509;47.992;7.848;2023-06-22T04:22:23;24.20;59.10
2439;DHT22;14509;47.992;7.848;2023-06-22T04:24:24;24.30;59.00
2439;DHT22;14509;47.992;7.848;2023-06-22T04:26:26;24.70;59.20
2439;DHT22;14509;47.992;7.848;2023-06-22T04:28:28;24.40;59.00
2439;DHT22;14509;47.992;7.848;2023-06-22T04:30:35;25.00;59.30
2439;DHT22;14509;47.992;7.848;2023-06-22T04:32:38;24.70;58.80
2439;DHT22;14509;47.992;7.848;2023-06-22T04:34:41;24.50;58.50
2439;DHT22;14509;47.992;7.848;2023-06-22T04:36:43;24.60;58.50
2439;DHT22;14509;47.992;7.848;2023-06-22T04:38:45;24.60;58.40
2439;DHT22;14509;47.992;7.848;2023-06-22T04:40:47;24.60;58.30
2439;DHT22;14509;47.992;7.848;2023-06-22T04:42:49;24.60;58.80
2439;DHT22;14509;47.992;7.848;2023-06-22T04:44:54;24.70;58.30
2439;DHT22;14509;47.992;7.848;2023-06-22T04:46:58;24.70;58.20
2439;DHT22;14509;47.992;7.848;2023-06-22T04:49:04;24.80;58.60
2439;DHT22;14509;47.992;7.848;2023-06-22T04:51:10;24.80;58.70
2439;DHT22;14509;47.992;7.848;2023-06-22T04:53:12;25.60;59.10
2439;DHT22;14509;47.992;7.848;2023-06-22T04:55:14;24.90;58.60
2439;DHT22;14509;47.992;7.848;2023-06-22T04:57:18;24.90;58.50
2439;DHT22;14509;47.992;7.848;2023-06-22T04:59:20;25.00;58.50
2439;DHT22;14509;47.992;7.848;2023-06-22T05:01:23;25.10;58.40
2439;DHT22;14509;47.992;7.848;2023-06-22T05:03:26;25.40;58.50
2439;DHT22;14509;47.992;7.848;2023-06-22T05:05:29;25.10;58.20
2439;DHT22;14509;47.992;7.848;2023-06-22T05:07:32;25.20;58.10
2439;DHT22;14509;47.992;7.848;2023-06-22T05:09:34;25.30;58.70
2439;DHT22;14509;47.992;7.848;2023-06-22T05:11:35;25.30;58.00
2439;DHT22;14509;47.992;7.848;2023-06-22T05:13:37;25.80;58.20
2439;DHT22;14509;47.992;7.848;2023-06-22T05:15:39;25.50;58.10
2439;DHT22;14509;47.992;7.848;2023-06-22T05:17:41;25.50;58.00
2439;DHT22;14509;47.992;7.848;2023-06-22T05:19:44;25.50;58.00
2439;DHT22;14509;47.992;7.848;2023-06-22T05:21:50;25.60;58.00
2439;DHT22;14509;47.992;7.848;2023-06-22T05:23:53;25.60;57.80
2439;DHT22;14509;47.992;7.848;2023-06-22T05:25:55;25.70;57.70
2439;DHT22;14509;47.992;7.848;2023-06-22T05:27:58;25.70;57.50
2439;DHT22;14509;47.992;7.848;2023-06-22T05:30:00;26.00;57.50
2439;DHT22;14509;47.992;7.848;2023-06-22T05:32:02;26.20;57.30
2439;DHT22;14509;47.992;7.848;2023-06-22T05:34:04;25.90;57.10
2439;DHT22;14509;47.992;7.848;2023-06-22T05:36:06;26.00;56.90
2439;DHT22;14509;47.992;7.848;2023-06-22T05:38:09;26.00;56.90
2439;DHT22;14509;47.992;7.848;2023-06-22T05:40:12;26.00;56.90
2439;DHT22;14509;47.992;7.848;2023-06-22T05:42:14;26.10;56.90
2439;DHT22;14509;47.992;7.848;2023-06-22T05:44:16;26.20;56.80
2439;DHT22;14509;47.992;7.848;2023-06-22T05:46:19;26.30;56.60
2439;DHT22;14509;47.992;7.848;2023-06-22T05:48:21;26.30;56.40
2439;DHT22;14509;47.992;7.848;2023-06-22T05:50:23;26.40;56.40
2439;DHT22;14509;47.992;7.848;2023-06-22T05:52:25;26.50;56.20
2439;DHT22;14509;47.992;7.848;2023-06-22T05:54:28;27.00;56.40
2439;DHT22;14509;47.992;7.848;2023-06-22T05:56:30;26.60;55.80
2439;DHT22;14509;47.992;7.848;2023-06-22T05:58:32;26.70;55.80
2439;DHT22;14509;47.992;7.848;2023-06-22T06:00:34;26.80;55.70
2439;DHT22;14509;47.992;7.848;2023-06-22T06:02:36;26.90;55.60
2439;DHT22;14509;47.992;7.848;2023-06-22T06:04:44;26.90;55.40
2439;DHT22;14509;47.992;7.848;2023-06-22T06:06:46;27.00;55.30
2439;DHT22;14509;47.992;7.848;2023-06-22T06:08:48;27.10;55.20
2439;DHT22;14509;47.992;7.848;2023-06-22T06:10:51;27.20;54.80
2439;DHT22;14509;47.992;7.848;2023-06-22T06:12:55;27.70;55.10
2439;DHT22;14509;47.992;7.848;2023-06-22T06:14:57;27.90;55.30
2439;DHT22;14509;47.992;7.848;2023-06-22T06:16:59;27.30;55.00
2439;DHT22;14509;47.992;7.848;2023-06-22T06:19:01;27.30;55.10
2439;DHT22;14509;47.992;7.848;2023-06-22T06:21:03;27.30;55.10
2439;DHT22;14509;47.992;7.848;2023-06-22T06:23:05;27.30;55.00
2439;DHT22;14509;47.992;7.848;2023-06-22T06:25:08;27.40;54.80
2439;DHT22;14509;47.992;7.848;2023-06-22T06:27:11;27.50;54.80
2439;DHT22;14509;47.992;7.848;2023-06-22T06:29:13;27.60;54.90
2439;DHT22;14509;47.992;7.848;2023-06-22T06:31:17;27.60;54.70
2439;DHT22;14509;47.992;7.848;2023-06-22T06:33:19;27.80;54.20
2439;DHT22;14509;47.992;7.848;2023-06-22T06:35:21;28.00;54.00
2439;DHT22;14509;47.992;7.848;2023-06-22T06:37:24;28.20;53.90
2439;DHT22;14509;47.992;7.848;2023-06-22T06:39:25;28.40;53.10
2439;DHT22;14509;47.992;7.848;2023-06-22T06:41:28;28.60;52.90
2439;DHT22;14509;47.992;7.848;2023-06-22T06:43:31;28.80;52.60
2439;DHT22;14509;47.992;7.848;2023-06-22T06:45:33;28.90;52.30
2439;DHT22;14509;47.992;7.848;2023-06-22T06:47:35;29.10;52.00
2439;DHT22;14509;47.992;7.848;2023-06-22T06:49:37;29.30;51.80
2439;DHT22;14509;47.992;7.848;2023-06-22T06:51:39;29.40;51.50
2439;DHT22;14509;47.992;7.848;2023-06-22T06:53:41;29.50;51.10
2439;DHT22;14509;47.992;7.848;2023-06-22T06:55:43;29.60;51.00
2439;DHT22;14509;47.992;7.848;2023-06-22T06:57:46;29.80;51.60
2439;DHT22;14509;47.992;7.848;2023-06-22T06:59:50;29.80;50.70
2439;DHT22;14509;47.992;7.848;2023-06-22T07:01:52;29.60;50.40
2439;DHT22;14509;47.992;7.848;2023-06-22T07:03:54;29.40;50.80
2439;DHT22;14509;47.992;7.848;2023-06-22T07:05:56;29.30;51.00
2439;DHT22;14509;47.992;7.848;2023-06-22T07:07:58;29.20;51.10
2439;DHT22;14509;47.992;7.848;2023-06-22T07:10:00;29.20;51.00
2439;DHT22;14509;47.992;7.848;2023-06-22T07:12:03;29.20;51.10
2439;DHT22;14509;47.992;7.848;2023-06-22T07:14:07;29.20;51.40
2439;DHT22;14509;47.992;7.848;2023-06-22T07:16:11;29.20;50.90
2439;DHT22;14509;47.992;7.848;2023-06-22T07:18:13;29.30;51.10
2439;DHT22;14509;47.992;7.848;2023-06-22T07:20:15;29.50;50.80
2439;DHT22;14509;47.992;7.848;2023-06-22T07:22:17;29.70;50.50
2439;DHT22;14509;47.992;7.848;2023-06-22T07:24:19;29.90;50.10
2439;DHT22;14509;47.992;7.848;2023-06-22T07:26:21;30.10;49.20
2439;DHT22;14509;47.992;7.848;2023-06-22T07:28:23;30.30;49.00
2439;DHT22;14509;47.992;7.848;2023-06-22T07:30:25;30.40;48.70
2439;DHT22;14509;47.992;7.848;2023-06-22T07:32:29;30.50;48.40
2439;DHT22;14509;47.992;7.848;2023-06-22T07:34:31;30.60;48.30
2439;DHT22;14509;47.992;7.848;2023-06-22T07:36:34;30.60;48.10
2439;DHT22;14509;47.992;7.848;2023-06-22T07:38:37;30.60;48.10
2439;DHT22;14509;47.992;7.848;2023-06-22T07:40:39;30.60;48.20
2439;DHT22;14509;47.992;7.848;2023-06-22T07:42:42;30.60;48.70
2439;DHT22;14509;47.992;7.848;2023-06-22T07:44:44;30.50;49.60
2439;DHT22;14509;47.992;7.848;2023-06-22T07:46:46;30.40;51.00
2439;DHT22;14509;47.992;7.848;2023-06-22T07:48:50;30.30;50.80
2439;DHT22;14509;47.992;7.848;2023-06-22T07:50:52;30.20;50.60
2439;DHT22;14509;47.992;7.848;2023-06-22T07:52:54;30.10;50.90
2439;DHT22;14509;47.992;7.848;2023-06-22T07:54:57;30.10;50.60
2439;DHT22;14509;47.992;7.848;2023-06-22T07:56:59;30.20;50.70
2439;DHT22;14509;47.992;7.848;2023-06-22T07:59:01;30.30;50.70
2439;DHT22;14509;47.992;7.848;2023-06-22T08:01:05;30.50;50.10
2439;DHT22;14509;47.992;7.848;2023-06-22T08:03:09;30.70;49.70
2439;DHT22;14509;47.992;7.848;2023-06-22T08:05:13;31.20;49.60
2439;DHT22;14509;47.992;7.848;2023-06-22T08:07:21;31.30;48.50
2439;DHT22;14509;47.992;7.848;2023-06-22T08:09:23;31.60;47.50
2439;DHT22;14509;47.992;7.848;2023-06-22T08:11:25;31.80;46.90
2439;DHT22;14509;47.992;7.848;2023-06-22T08:13:28;31.90;46.60
2439;DHT22;14509;47.992;7.848;2023-06-22T08:15:30;32.10;45.80
2439;DHT22;14509;47.992;7.848;2023-06-22T08:17:33;32.30;45.80
2439;DHT22;14509;47.992;7.848;2023-06-22T08:19:37;32.40;45.20
2439;DHT22;14509;47.992;7.848;2023-06-22T08:21:44;32.60;44.60
2439;DHT22;14509;47.992;7.848;2023-06-22T08:23:47;32.80;43.80
2439;DHT22;14509;47.992;7.848;2023-06-22T08:25:49;32.90;43.30
2439;DHT22;14509;47.992;7.848;2023-06-22T08:27:51;33.10;42.90
2439;DHT22;14509;47.992;7.848;2023-06-22T08:29:53;33.20;42.30
2439;DHT22;14509;47.992;7.848;2023-06-22T08:31:58;33.40;41.70
2439;DHT22;14509;47.992;7.848;2023-06-22T08:34:01;33.60;41.10
2439;DHT22;14509;47.992;7.848;2023-06-22T08:36:03;33.90;40.90
2439;DHT22;14509;47.992;7.848;2023-06-22T08:38:08;34.10;40.00
2439;DHT22;14509;47.992;7.848;2023-06-22T08:40:11;34.40;39.80
2439;DHT22;14509;47.992;7.848;2023-06-22T08:42:13;34.70;39.10
2439;DHT22;14509;47.992;7.848;2023-06-22T08:44:18;34.90;38.20
2439;DHT22;14509;47.992;7.848;2023-06-22T08:46:20;35.10;38.00
2439;DHT22;14509;47.992;7.848;2023-06-22T08:48:25;35.20;37.90
2439;DHT22;14509;47.992;7.848;2023-06-22T08:50:27;35.30;37.70
2439;DHT22;14509;47.992;7.848;2023-06-22T08:52:29;35.30;37.90
2439;DHT22;14509;47.992;7.848;2023-06-22T08:54:32;35.40;37.60
2439;DHT22;14509;47.992;7.848;2023-06-22T08:56:35;35.50;38.00
2439;DHT22;14509;47.992;7.848;2023-06-22T08:58:37;35.60;37.20
2439;DHT22;14509;47.992;7.848;2023-06-22T09:00:39;35.80;37.10
2439;DHT22;14509;47.992;7.848;2023-06-22T09:02:41;36.00;36.80
2439;DHT22;14509;47.992;7.848;2023-06-22T09:04:43;36.20;36.40
2439;DHT22;14509;47.992;7.848;2023-06-22T09:06:45;36.30;35.40
2439;DHT22;14509;47.992;7.848;2023-06-22T09:08:47;36.30;35.60
2439;DHT22;14509;47.992;7.848;2023-06-22T09:10:51;36.30;35.50
2439;DHT22;14509;47.992;7.848;2023-06-22T09:12:53;36.40;35.70
2439;DHT22;14509;47.992;7.848;2023-06-22T09:14:55;36.40;35.50
2439;DHT22;14509;47.992;7.848;2023-06-22T09:16:57;36.60;34.90
2439;DHT22;14509;47.992;7.848;2023-06-22T09:18:59;36.80;34.80
2439;DHT22;14509;47.992;7.848;2023-06-22T09:21:01;37.00;34.30
2439;DHT22;14509;47.992;7.848;2023-06-22T09:23:03;37.10;33.60
2439;DHT22;14509;47.992;7.848;2023-06-22T09:25:05;37.30;33.20
2439;DHT22;14509;47.992;7.848;2023-06-22T09:27:09;37.50;32.80
2439;DHT22;14509;47.992;7.848;2023-06-22T09:29:11;37.60;32.40
2439;DHT22;14509;47.992;7.848;2023-06-22T09:31:13;37.70;32.90
2439;DHT22;14509;47.992;7.848;2023-06-22T09:33:17;37.80;33.10
2439;DHT22;14509;47.992;7.848;2023-06-22T09:35:20;37.70;33.60
2439;DHT22;14509;47.992;7.848;2023-06-22T09:37:22;37.60;33.90
2439;DHT22;14509;47.992;7.848;2023-06-22T09:39:24;37.50;34.00
2439;DHT22;14509;47.992;7.848;2023-06-22T09:41:26;37.40;34.20
2439;DHT22;14509;47.992;7.848;2023-06-22T09:43:32;37.30;34.40
2439;DHT22;14509;47.992;7.848;2023-06-22T09:45:35;37.20;34.90
2439;DHT22;14509;47.992;7.848;2023-06-22T09:47:37;37.20;34.50
2439;DHT22;14509;47.992;7.848;2023-06-22T09:49:39;37.20;34.10
2439;DHT22;14509;47.992;7.848;2023-06-22T09:51:42;37.20;34.50
2439;DHT22;14509;47.992;7.848;2023-06-22T09:53:44;37.30;34.40
2439;DHT22;14509;47.992;7.848;2023-06-22T09:55:46;37.30;34.20
2439;DHT22;14509;47.992;7.848;2023-06-22T09:57:49;37.40;34.10
2439;DHT22;14509;47.992;7.848;2023-06-22T09:59:53;37.50;34.30
2439;DHT22;14509;47.992;7.848;2023-06-22T10:01:55;37.60;34.00
2439;DHT22;14509;47.992;7.848;2023-06-22T10:03:57;37.60;34.00
2439;DHT22;14509;47.992;7.848;2023-06-22T10:06:00;37.80;33.90
2439;DHT22;14509;47.992;7.848;2023-06-22T10:08:04;37.90;33.80
2439;DHT22;14509;47.992;7.848;2023-06-22T10:10:08;37.80;33.80
2439;DHT22;14509;47.992;7.848;2023-06-22T10:12:11;37.80;33.80
2439;DHT22;14509;47.992;7.848;2023-06-22T10:14:13;37.70;33.90
2439;DHT22;14509;47.992;7.848;2023-06-22T10:16:16;37.80;34.10
2439;DHT22;14509;47.992;7.848;2023-06-22T10:18:19;37.60;33.90
2439;DHT22;14509;47.992;7.848;2023-06-22T10:20:21;37.80;34.10
2439;DHT22;14509;47.992;7.848;2023-06-22T10:22:24;37.90;34.30
2439;DHT22;14509;47.992;7.848;2023-06-22T10:24:26;37.90;34.40
2439;DHT22;14509;47.992;7.848;2023-06-22T10:26:31;37.90;34.00
2439;DHT22;14509;47.992;7.848;2023-06-22T10:28:33;38.00;33.60
2439;DHT22;14509;47.992;7.848;2023-06-22T10:30:35;38.10;33.40
2439;DHT22;14509;47.992;7.848;2023-06-22T10:32:39;38.10;33.30
2439;DHT22;14509;47.992;7.848;2023-06-22T10:34:42;38.20;33.20
2439;DHT22;14509;47.992;7.848;2023-06-22T10:36:45;38.30;32.80
2439;DHT22;14509;47.992;7.848;2023-06-22T10:38:51;38.50;32.40
2439;DHT22;14509;47.992;7.848;2023-06-22T10:40:54;38.50;31.80
2439;DHT22;14509;47.992;7.848;2023-06-22T11:06:56;37.80;35.00
2439;DHT22;14509;47.992;7.848;2023-06-22T11:08:58;37.90;34.80
2439;DHT22;14509;47.992;7.848;2023-06-22T11:11:01;38.10;34.60
2439;DHT22;14509;47.992;7.848;2023-06-22T11:13:05;38.20;34.20
2439;DHT22;14509;47.992;7.848;2023-06-22T11:15:12;38.40;33.90
2439;DHT22;14509;47.992;7.848;2023-06-22T11:17:14;38.50;34.10
2439;DHT22;14509;47.992;7.848;2023-06-22T11:19:16;38.70;33.80
2439;DHT22;14509;47.992;7.848;2023-06-22T11:21:20;38.90;33.40
2439;DHT22;14509;47.992;7.848;2023-06-22T11:23:29;39.10;33.30
2439;DHT22;14509;47.992;7.848;2023-06-22T11:25:34;39.40;32.70
2439;DHT22;14509;47.992;7.848;2023-06-22T11:27:47;39.50;32.80
2439;DHT22;14509;47.992;7.848;2023-06-22T11:29:58;39.50;32.80
2439;DHT22;14509;47.992;7.848;2023-06-22T11:32:02;39.60;32.50
2439;DHT22;14509;47.992;7.848;2023-06-22T11:34:15;39.60;32.70
2439;DHT22;14509;47.992;7.848;2023-06-22T11:36:20;39.60;32.40
2439;DHT22;14509;47.992;7.848;2023-06-22T11:38:28;39.60;33.00
2439;DHT22;14509;47.992;7.848;2023-06-22T11:40:32;39.60;32.20
2439;DHT22;14509;47.992;7.848;2023-06-22T11:42:38;39.60;32.30
2439;DHT22;14509;47.992;7.848;2023-06-22T11:44:43;39.60;32.40
2439;DHT22;14509;47.992;7.848;2023-06-22T11:46:48;39.60;32.00
2439;DHT22;14509;47.992;7.848;2023-06-22T11:48:52;39.60;32.40
2439;DHT22;14509;47.992;7.848;2023-06-22T11:51:01;39.50;32.40
2439;DHT22;14509;47.992;7.848;2023-06-22T11:53:58;39.40;32.70
2439;DHT22;14509;47.992;7.848;2023-06-22T11:56:30;39.20;32.60
2439;DHT22;14509;47.992;7.848;2023-06-22T11:58:38;39.10;32.90
2439;DHT22;14509;47.992;7.848;2023-06-22T12:01:17;39.00;33.00
2439;DHT22;14509;47.992;7.848;2023-06-22T12:03:35;38.90;33.00
2439;DHT22;14509;47.992;7.848;2023-06-22T12:06:21;38.90;33.20
2439;DHT22;14509;47.992;7.848;2023-06-22T12:08:29;38.90;33.00
2439;DHT22;14509;47.992;7.848;2023-06-22T12:10:37;38.90;33.00
2439;DHT22;14509;47.992;7.848;2023-06-22T12:12:48;38.70;32.70
2439;DHT22;14509;47.992;7.848;2023-06-22T12:15:03;38.90;32.80
2439;DHT22;14509;47.992;7.848;2023-06-22T12:17:07;38.60;32.60
2439;DHT22;14509;47.992;7.848;2023-06-22T12:19:17;38.60;32.80
2439;DHT22;14509;47.992;7.848;2023-06-22T12:21:20;38.50;33.40
2439;DHT22;14509;47.992;7.848;2023-06-22T12:23:24;38.20;33.30
2439;DHT22;14509;47.992;7.848;2023-06-22T12:25:46;38.20;34.10
2439;DHT22;14509;47.992;7.848;2023-06-22T12:27:49;37.90;34.90
2439;DHT22;14509;47.992;7.848;2023-06-22T12:29:53;37.70;35.70
2439;DHT22;14509;47.992;7.848;2023-06-22T12:31:59;37.30;36.30
2439;DHT22;14509;47.992;7.848;2023-06-22T12:34:01;36.90;37.00
2439;DHT22;14509;47.992;7.848;2023-06-22T12:36:03;36.50;37.80
2439;DHT22;14509;47.992;7.848;2023-06-22T12:38:05;36.20;37.90
2439;DHT22;14509;47.992;7.848;2023-06-22T12:40:09;35.70;38.30
2439;DHT22;14509;47.992;7.848;2023-06-22T12:42:13;35.20;39.10
2439;DHT22;14509;47.992;7.848;2023-06-22T12:44:15;35.10;39.80
2439;DHT22;14509;47.992;7.848;2023-06-22T12:46:17;34.90;40.20
2439;DHT22;14509;47.992;7.848;2023-06-22T12:48:19;34.90;41.00
2439;DHT22;14509;47.992;7.848;2023-06-22T12:50:21;35.00;39.70
2439;DHT22;14509;47.992;7.848;2023-06-22T12:52:23;35.00;39.40
2439;DHT22;14509;47.992;7.848;2023-06-22T12:54:25;35.10;39.40
2439;DHT22;14509;47.992;7.848;2023-06-22T12:59:30;35.20;39.80
2439;DHT22;14509;47.992;7.848;2023-06-22T13:01:32;35.20;39.00
2439;DHT22;14509;47.992;7.848;2023-06-22T13:03:34;35.20;39.30
2439;DHT22;14509;47.992;7.848;2023-06-22T13:05:37;35.30;40.00
2439;DHT22;14509;47.992;7.848;2023-06-22T13:07:39;35.40;40.00
2439;DHT22;14509;47.992;7.848;2023-06-22T13:09:42;35.60;39.70
2439;DHT22;14509;47.992;7.848;2023-06-22T13:11:47;35.70;38.80
2439;DHT22;14509;47.992;7.848;2023-06-22T13:13:49;35.90;38.40
2439;DHT22;14509;47.992;7.848;2023-06-22T13:15:54;36.10;38.10
2439;DHT22;14509;47.992;7.848;2023-06-22T13:17:56;36.10;37.80
2439;DHT22;14509;47.992;7.848;2023-06-22T13:19:58;36.10;37.50
2439;DHT22;14509;47.992;7.848;2023-06-22T13:22:01;36.00;38.10
2439;DHT22;14509;47.992;7.848;2023-06-22T13:24:05;35.80;38.40
2439;DHT22;14509;47.992;7.848;2023-06-22T13:26:08;35.80;39.10
2439;DHT22;14509;47.992;7.848;2023-06-22T13:28:10;35.70;38.80
2439;DHT22;14509;47.992;7.848;2023-06-22T13:30:14;35.50;38.90
2439;DHT22;14509;47.992;7.848;2023-06-22T13:32:18;35.30;39.40
2439;DHT22;14509;47.992;7.848;2023-06-22T13:34:21;35.10;40.20
2439;DHT22;14509;47.992;7.848;2023-06-22T13:36:23;34.90;39.90
2439;DHT22;14509;47.992;7.848;2023-06-22T13:38:25;34.80;39.40
2439;DHT22;14509;47.992;7.848;2023-06-22T13:40:27;34.80;38.90
2439;DHT22;14509;47.992;7.848;2023-06-22T13:42:30;34.90;38.20
2439;DHT22;14509;47.992;7.848;2023-06-22T13:44:32;34.90;37.90
2439;DHT22;14509;47.992;7.848;2023-06-22T13:46:34;34.90;37.60
2439;DHT22;14509;47.992;7.848;2023-06-22T13:48:37;34.90;37.40
2439;DHT22;14509;47.992;7.848;2023-06-22T13:50:41;35.00;37.60
2439;DHT22;14509;47.992;7.848;2023-06-22T13:52:43;34.90;38.00
2439;DHT22;14509;47.992;7.848;2023-06-22T13:54:45;34.80;38.60
2439;DHT22;14509;47.992;7.848;2023-06-22T13:56:47;34.70;38.40
2439;DHT22;14509;47.992;7.848;2023-06-22T13:58:49;34.60;38.40
2439;DHT22;14509;47.992;7.848;2023-06-22T14:00:51;34.50;39.70
2439;DHT22;14509;47.992;7.848;2023-06-22T14:02:53;34.40;39.80
2439;DHT22;14509;47.992;7.848;2023-06-22T14:04:56;34.30;39.70
2439;DHT22;14509;47.992;7.848;2023-06-22T14:07:02;34.20;39.90
2439;DHT22;14509;47.992;7.848;2023-06-22T14:09:04;34.20;40.80
2439;DHT22;14509;47.992;7.848;2023-06-22T14:11:07;34.10;39.70
2439;DHT22;14509;47.992;7.848;2023-06-22T14:13:09;34.10;40.00
2439;DHT22;14509;47.992;7.848;2023-06-22T14:15:11;34.20;39.60
2439;DHT22;14509;47.992;7.848;2023-06-22T14:17:14;34.30;39.40
2439;DHT22;14509;47.992;7.848;2023-06-22T14:19:17;34.30;39.10
2439;DHT22;14509;47.992;7.848;2023-06-22T14:21:21;34.40;39.10
2439;DHT22;14509;47.992;7.848;2023-06-22T14:23:24;34.50;39.00
2439;DHT22;14509;47.992;7.848;2023-06-22T14:25:26;34.50;38.70
2439;DHT22;14509;47.992;7.848;2023-06-22T14:27:28;34.60;38.40
2439;DHT22;14509;47.992;7.848;2023-06-22T14:29:30;34.60;38.30
2439;DHT22;14509;47.992;7.848;2023-06-22T14:31:32;34.80;38.00
2439;DHT22;14509;47.992;7.848;2023-06-22T14:33:34;35.00;37.60
2439;DHT22;14509;47.992;7.848;2023-06-22T14:35:36;35.20;37.40
2439;DHT22;14509;47.992;7.848;2023-06-22T14:37:40;35.30;37.10
2439;DHT22;14509;47.992;7.848;2023-06-22T14:39:42;35.40;37.10
2439;DHT22;14509;47.992;7.848;2023-06-22T14:41:43;35.50;37.30
2439;DHT22;14509;47.992;7.848;2023-06-22T14:43:45;35.60;37.80
2439;DHT22;14509;47.992;7.848;2023-06-22T14:45:48;36.00;38.00
2439;DHT22;14509;47.992;7.848;2023-06-22T14:47:50;36.90;36.60
2439;DHT22;14509;47.992;7.848;2023-06-22T14:49:52;38.10;34.40
2439;DHT22;14509;47.992;7.848;2023-06-22T14:51:54;39.40;32.00
2439;DHT22;14509;47.992;7.848;2023-06-22T14:53:58;40.50;29.90
2439;DHT22;14509;47.992;7.848;2023-06-22T14:56:00;41.10;29.00
2439;DHT22;14509;47.992;7.848;2023-06-22T14:58:02;41.30;28.50
2439;DHT22;14509;47.992;7.848;2023-06-22T15:00:05;41.10;28.40
2439;DHT22;14509;47.992;7.848;2023-06-22T15:02:08;40.70;28.80
2439;DHT22;14509;47.992;7.848;2023-06-22T15:04:11;40.40;28.90
2439;DHT22;14509;47.992;7.848;2023-06-22T15:06:13;40.00;29.20
2439;DHT22;14509;47.992;7.848;2023-06-22T15:08:15;39.60;29.30
2439;DHT22;14509;47.992;7.848;2023-06-22T15:10:19;39.30;29.70
2439;DHT22;14509;47.992;7.848;2023-06-22T15:12:20;39.10;29.90
2439;DHT22;14509;47.992;7.848;2023-06-22T15:14:23;38.90;30.40
2439;DHT22;14509;47.992;7.848;2023-06-22T15:16:26;38.80;30.50
2439;DHT22;14509;47.992;7.848;2023-06-22T15:18:28;38.90;30.40
2439;DHT22;14509;47.992;7.848;2023-06-22T15:20:32;39.00;30.00
2439;DHT22;14509;47.992;7.848;2023-06-22T15:22:34;39.30;29.80
2439;DHT22;14509;47.992;7.848;2023-06-22T15:24:36;39.80;29.40
2439;DHT22;14509;47.992;7.848;2023-06-22T15:26:39;40.20;28.80
2439;DHT22;14509;47.992;7.848;2023-06-22T15:28:41;40.50;28.70
2439;DHT22;14509;47.992;7.848;2023-06-22T15:30:43;40.50;28.40
2439;DHT22;14509;47.992;7.848;2023-06-22T15:32:46;40.60;28.10
2439;DHT22;14509;47.992;7.848;2023-06-22T15:34:48;41.00;27.40
2439;DHT22;14509;47.992;7.848;2023-06-22T15:36:56;41.50;26.80
2439;DHT22;14509;47.992;7.848;2023-06-22T15:38:58;41.80;26.60
2439;DHT22;14509;47.992;7.848;2023-06-22T15:41:03;41.90;26.10
2439;DHT22;14509;47.992;7.848;2023-06-22T15:43:10;41.70;25.90
2439;DHT22;14509;47.992;7.848;2023-06-22T15:45:12;41.50;26.00
2439;DHT22;14509;47.992;7.848;2023-06-22T15:47:14;41.20;26.20
2439;DHT22;14509;47.992;7.848;2023-06-22T15:49:17;41.00;26.50
2439;DHT22;14509;47.992;7.848;2023-06-22T15:51:19;40.80;26.70
2439;DHT22;14509;47.992;7.848;2023-06-22T15:53:21;40.70;26.50
2439;DHT22;14509;47.992;7.848;2023-06-22T15:55:23;40.60;26.50
2439;DHT22;14509;47.992;7.848;2023-06-22T15:57:27;40.40;27.10
2439;DHT22;14509;47.992;7.848;2023-06-22T15:59:31;40.20;27.10
2439;DHT22;14509;47.992;7.848;2023-06-22T16:01:33;40.00;27.40
2439;DHT22;14509;47.992;7.848;2023-06-22T16:03:35;39.80;27.50
2439;DHT22;14509;47.992;7.848;2023-06-22T16:05:39;39.50;27.60
2439;DHT22;14509;47.992;7.848;2023-06-22T16:07:42;39.30;27.80
2439;DHT22;14509;47.992;7.848;2023-06-22T16:09:44;39.10;28.00
2439;DHT22;14509;47.992;7.848;2023-06-22T16:11:46;38.90;28.20
2439;DHT22;14509;47.992;7.848;2023-06-22T16:13:48;38.60;28.30
2439;DHT22;14509;47.992;7.848;2023-06-22T16:15:54;38.40;28.60
2439;DHT22;14509;47.992;7.848;2023-06-22T16:17:56;38.20;28.60
2439;DHT22;14509;47.992;7.848;2023-06-22T16:19:58;37.90;28.90
2439;DHT22;14509;47.992;7.848;2023-06-22T16:22:00;37.60;29.20
2439;DHT22;14509;47.992;7.848;2023-06-22T16:24:03;37.30;29.50
2439;DHT22;14509;47.992;7.848;2023-06-22T16:26:06;37.10;29.70
2439;DHT22;14509;47.992;7.848;2023-06-22T16:28:08;36.70;29.00
2439;DHT22;14509;47.992;7.848;2023-06-22T16:30:16;36.30;29.50
2439;DHT22;14509;47.992;7.848;2023-06-22T16:32:20;36.10;30.00